Time;durP1;ratioP1;P1;durP2;ratioP2;P2;SDS_P1;SDS_P2;PMS_P1;PMS_P2;Temp;Humidity;BMP_temperature;BMP_pressure;BME280_temperature;BME280_humidity;BME280_pressure;Samples;Min_cycle;Max_cycle;Signal;HPM_P1;HPM_P2
2022/06/25 00:01:57;;;;;;;34.17;14.82;;;;;;;17.57;100.00;100526.94;5056692;28;20037;-75
2022/06/25 00:07:06;;;;;;;23.85;14.43;;;;;;;17.47;100.00;100529.06;5056577;28;20381;-75
2022/06/25 00:09:32;;;;;;;21.58;12.38;;;;;;;17.51;100.00;100525.75;5055216;28;20041;-75
2022/06/25 00:14:41;;;;;;;19.52;11.40;;;;;;;17.51;100.00;100527.66;5056582;28;20045;-75
2022/06/25 00:17:06;;;;;;;24.40;11.13;;;;;;;17.49;100.00;100525.06;5055196;28;20075;-75
2022/06/25 00:19:32;;;;;;;26.70;11.65;;;;;;;17.48;100.00;100525.22;5055391;28;20485;-75
2022/06/25 00:21:58;;;;;;;24.60;10.25;;;;;;;17.47;100.00;100529.06;5038632;28;20044;-75
2022/06/25 00:24:23;;;;;;;16.70;10.18;;;;;;;17.47;100.00;100537.34;5056374;28;20036;-75
2022/06/25 00:26:50;;;;;;;22.63;10.27;;;;;;;17.37;100.00;100537.53;5038160;28;20045;-75
2022/06/25 00:29:16;;;;;;;21.70;9.68;;;;;;;17.37;100.00;100524.56;5038685;28;20041;-75
2022/06/25 00:31:42;;;;;;;17.88;10.32;;;;;;;17.38;100.00;100534.59;5055252;28;20029;-75
2022/06/25 00:34:07;;;;;;;20.30;9.63;;;;;;;17.34;100.00;100537.88;5055962;28;20183;-75
2022/06/25 00:36:33;;;;;;;22.25;10.15;;;;;;;17.42;100.00;100541.50;5054806;28;20028;-75
2022/06/25 00:38:58;;;;;;;24.48;9.98;;;;;;;17.37;100.00;100537.53;5054845;28;20037;-75
2022/06/25 00:41:24;;;;;;;25.50;10.88;;;;;;;17.40;100.00;100543.59;5056011;28;20059;-75
2022/06/25 00:43:50;;;;;;;19.88;9.65;;;;;;;17.36;100.00;100533.03;5054713;28;20370;-75
2022/06/25 00:46:16;;;;;;;15.25;9.10;;;;;;;17.35;100.00;100536.81;5038174;28;20036;-75
2022/06/25 00:48:41;;;;;;;26.50;9.80;;;;;;;17.30;100.00;100533.72;5054565;28;20439;-75
2022/06/25 00:51:13;;;;;;;20.13;10.02;;;;;;;17.28;100.00;100547.72;5054597;28;20068;-75
2022/06/25 00:53:45;;;;;;;19.48;8.77;;;;;;;17.24;100.00;100549.13;5054409;28;20029;-75
2022/06/25 00:56:12;;;;;;;18.25;8.63;;;;;;;17.25;100.00;100545.34;5055815;28;20017;-75
2022/06/25 00:58:40;;;;;;;25.30;9.38;;;;;;;17.20;100.00;100553.25;5055260;28;20040;-75
2022/06/25 01:01:08;;;;;;;27.58;9.80;;;;;;;17.14;100.00;100557.59;5054180;28;20036;-75
2022/06/25 01:03:37;;;;;;;15.38;9.38;;;;;;;17.16;100.00;100552.75;5054165;28;20112;-75
2022/06/25 01:06:04;;;;;;;24.52;8.90;;;;;;;17.11;100.00;100557.06;5037387;28;20170;-75
2022/06/25 01:08:31;;;;;;;17.10;8.40;;;;;;;17.07;100.00;100567.63;5054256;28;20040;-75
2022/06/25 01:10:57;;;;;;;22.70;9.20;;;;;;;17.07;100.00;100568.47;5054220;28;20112;-75
2022/06/25 01:13:23;;;;;;;21.88;8.68;;;;;;;17.00;100.00;100569.31;5054237;28;20115;-75
2022/06/25 01:15:49;;;;;;;25.02;10.32;;;;;;;16.99;100.00;100576.78;5055241;28;20472;-75
2022/06/25 01:18:15;;;;;;;17.55;9.55;;;;;;;16.92;100.00;100580.38;5055240;28;20039;-75
2022/06/25 01:20:42;;;;;;;16.80;9.02;;;;;;;16.95;100.00;100580.88;5054159;28;20033;-75
2022/06/25 01:23:12;;;;;;;18.63;10.55;;;;;;;16.88;100.00;100585.38;5054278;28;20078;-75
2022/06/25 01:25:38;;;;;;;24.40;9.93;;;;;;;16.85;100.00;100588.47;5053667;28;20060;-75
2022/06/25 01:28:04;;;;;;;22.70;10.27;;;;;;;16.89;100.00;100584.38;5053852;28;20566;-75
2022/06/25 01:30:31;;;;;;;22.40;9.85;;;;;;;16.85;100.00;100585.72;5053754;28;20124;-75
2022/06/25 01:32:56;;;;;;;16.23;9.80;;;;;;;16.82;100.00;100586.03;5054922;28;20029;-75
2022/06/25 01:35:22;;;;;;;23.02;10.48;;;;;;;16.76;100.00;100584.81;5037125;28;20439;-75
2022/06/25 01:37:47;;;;;;;23.00;10.60;;;;;;;16.79;100.00;100586.34;5054798;28;20392;-75
2022/06/25 01:40:13;;;;;;;22.30;10.05;;;;;;;16.77;100.00;100593.97;5053548;28;20396;-75
2022/06/25 01:45:22;;;;;;;23.50;10.32;;;;;;;16.74;100.00;100595.16;5053866;28;20048;-75
2022/06/25 01:47:48;;;;;;;22.40;9.60;;;;;;;16.72;100.00;100595.34;5053585;28;20029;-75
2022/06/25 01:50:14;;;;;;;23.02;11.07;;;;;;;16.75;100.00;100601.56;5053489;28;20043;-75
2022/06/25 01:52:40;;;;;;;16.80;10.10;;;;;;;16.73;100.00;100602.59;5036789;28;20341;-75
2022/06/25 01:55:07;;;;;;;22.45;10.40;;;;;;;16.76;100.00;100606.03;5054645;28;20068;-75
2022/06/25 01:57:32;;;;;;;15.77;9.68;;;;;;;16.72;100.00;100606.41;5054561;28;20420;-75
2022/06/25 01:59:58;;;;;;;25.50;10.57;;;;;;;16.76;100.00;100606.94;5053281;28;20067;-75
2022/06/25 02:02:24;;;;;;;29.05;11.25;;;;;;;16.70;100.00;100619.50;5053089;28;20528;-75
2022/06/25 02:04:49;;;;;;;29.10;10.45;;;;;;;16.73;100.00;100619.19;5053063;28;20025;-75
2022/06/25 02:07:15;;;;;;;19.45;11.07;;;;;;;16.71;100.00;100623.16;5053338;28;20040;-75
2022/06/25 02:09:40;;;;;;;26.77;11.48;;;;;;;16.66;100.00;100625.53;5052494;28;20115;-75
2022/06/25 02:12:07;;;;;;;19.25;10.82;;;;;;;16.73;100.00;100623.84;5052550;28;20076;-75
2022/06/25 02:14:33;;;;;;;28.20;12.35;;;;;;;16.65;100.00;100623.81;5036648;28;20096;-75
2022/06/25 02:16:59;;;;;;;25.15;11.82;;;;;;;16.60;100.00;100624.31;5052840;28;20049;-75
2022/06/25 02:19:25;;;;;;;25.70;11.88;;;;;;;16.66;100.00;100636.59;5054020;28;20464;-76
2022/06/25 02:21:50;;;;;;;24.00;11.90;;;;;;;16.59;100.00;100628.09;5052702;28;20087;-74
2022/06/25 02:24:16;;;;;;;24.25;11.02;;;;;;;16.61;100.00;100634.34;5036140;28;20082;-74
2022/06/25 02:26:42;;;;;;;30.02;10.77;;;;;;;16.67;100.00;100639.19;5053624;28;20049;-74
2022/06/25 02:29:07;;;;;;;19.20;10.38;;;;;;;16.63;100.00;100639.72;5053761;28;20040;-75
2022/06/25 02:31:33;;;;;;;27.50;11.82;;;;;;;16.57;100.00;100637.63;5053868;28;20072;-74
2022/06/25 02:33:59;;;;;;;26.00;11.52;;;;;;;16.54;100.00;100634.16;5035944;28;20422;-75
2022/06/25 02:36:24;;;;;;;27.92;11.05;;;;;;;16.47;100.00;100646.88;5053657;28;20385;-75
2022/06/25 02:38:50;;;;;;;22.98;11.02;;;;;;;16.50;100.00;100643.78;5053561;28;20492;-75
2022/06/25 02:41:15;;;;;;;30.60;11.35;;;;;;;16.44;100.00;100646.34;5052373;28;20036;-75
2022/06/25 02:43:41;;;;;;;28.98;11.05;;;;;;;16.48;100.00;100650.53;5052183;28;20128;-75
2022/06/25 02:46:06;;;;;;;20.38;10.98;;;;;;;16.50;100.00;100659.53;5035627;28;20037;-74
2022/06/25 02:48:33;;;;;;;21.77;10.55;;;;;;;16.47;100.00;100655.19;5035895;28;20534;-74
2022/06/25 02:50:58;;;;;;;25.95;10.63;;;;;;;16.50;100.00;100660.38;5053506;28;20523;-74
2022/06/25 02:53:24;;;;;;;32.90;12.98;;;;;;;16.47;100.00;100657.94;5052101;28;20503;-74
2022/06/25 03:01:17;;;;;;;23.65;11.63;;;;;;;16.38;100.00;100663.59;5052320;28;20061;-74
2022/06/25 03:03:43;;;;;;;31.52;11.75;;;;;;;16.35;100.00;100668.41;5018993;28;20470;-74
2022/06/25 03:06:08;;;;;;;28.05;12.50;;;;;;;16.35;100.00;100671.19;5035355;28;20040;-73
2022/06/25 03:08:34;;;;;;;19.42;12.38;;;;;;;16.32;100.00;100676.19;5051842;28;20131;-74
2022/06/25 03:10:59;;;;;;;22.90;12.48;;;;;;;16.25;100.00;100670.44;5035237;28;20480;-74
2022/06/25 03:13:25;;;;;;;28.80;12.43;;;;;;;16.29;100.00;100669.06;5035414;28;20029;-74
2022/06/25 03:15:50;;;;;;;24.65;11.77;;;;;;;16.22;100.00;100672.66;5052132;28;20388;-74
2022/06/25 03:18:16;;;;;;;29.73;11.75;;;;;;;16.29;100.00;100677.34;5035176;28;20127;-74
2022/06/25 03:20:41;;;;;;;29.55;12.50;;;;;;;16.28;100.00;100677.53;5053081;28;20104;-74
2022/06/25 03:23:07;;;;;;;33.35;11.90;;;;;;;16.24;100.00;100673.38;5051665;28;20127;-74
2022/06/25 03:25:32;;;;;;;20.80;11.05;;;;;;;16.26;100.00;100680.44;5018372;28;20073;-74
2022/06/25 03:27:58;;;;;;;20.17;11.45;;;;;;;16.28;100.00;100670.13;5051777;28;20068;-75
2022/06/25 03:30:23;;;;;;;18.05;10.07;;;;;;;16.30;100.00;100659.75;5052874;28;20055;-74
2022/06/25 03:32:49;;;;;;;27.20;10.10;;;;;;;16.31;100.00;100672.53;5052976;28;20057;-74
2022/06/25 03:35:14;;;;;;;27.13;12.30;;;;;;;16.33;100.00;100673.25;5052884;28;20034;-74
2022/06/25 03:37:40;;;;;;;20.30;11.18;;;;;;;16.38;100.00;100669.13;5051460;28;20025;-74
2022/06/25 03:40:06;;;;;;;19.75;11.07;;;;;;;16.32;100.00;100677.03;5051730;28;20067;-75
2022/06/25 03:42:31;;;;;;;20.27;10.80;;;;;;;16.41;100.00;100677.09;5051632;28;20435;-75
2022/06/25 03:44:57;;;;;;;23.08;10.45;;;;;;;16.45;100.00;100681.25;5052859;28;20029;-75
2022/06/25 03:47:22;;;;;;;21.48;11.15;;;;;;;16.43;100.00;100680.53;5051530;28;20033;-75
2022/06/25 03:49:48;;;;;;;24.73;10.40;;;;;;;16.41;100.00;100683.47;5052823;28;20037;-75
2022/06/25 03:52:13;;;;;;;26.15;11.55;;;;;;;16.43;100.00;100680.53;5052790;28;20044;-75
2022/06/25 03:54:39;;;;;;;17.27;10.57;;;;;;;16.44;100.00;100690.56;5051474;28;20110;-74
2022/06/25 03:57:04;;;;;;;26.10;11.38;;;;;;;16.44;100.00;100685.03;5051542;28;20449;-75
2022/06/25 03:59:30;;;;;;;19.17;10.40;;;;;;;16.41;100.00;100677.09;5051431;28;20048;-75
2022/06/25 04:01:56;;;;;;;17.15;10.55;;;;;;;16.44;100.00;100679.53;5051454;28;20056;-75
2022/06/25 04:04:21;;;;;;;36.85;11.10;;;;;;;16.45;100.00;100681.25;5051516;28;20373;-75
2022/06/25 04:06:47;;;;;;;24.02;11.05;;;;;;;16.54;100.00;100685.78;5034820;28;20025;-75
2022/06/25 04:09:13;;;;;;;40.65;12.30;;;;;;;16.51;100.00;100683.34;5051292;28;20048;-75
2022/06/25 04:11:38;;;;;;;25.65;11.00;;;;;;;16.56;100.00;100692.03;5051445;28;20025;-75
2022/06/25 04:14:04;;;;;;;19.20;10.90;;;;;;;16.63;100.00;100698.63;5051492;28;20041;-75
2022/06/25 04:16:30;;;;;;;30.73;11.30;;;;;;;16.67;100.00;100691.72;5051429;28;20025;-75
2022/06/25 04:18:56;;;;;;;26.70;10.77;;;;;;;16.69;100.00;100688.78;5052430;28;20119;-75
2022/06/25 04:21:22;;;;;;;21.60;11.90;;;;;;;16.77;100.00;100696.28;5052545;28;20040;-75
2022/06/25 04:23:47;;;;;;;25.27;10.40;;;;;;;16.82;100.00;100699.41;5052467;28;20077;-75
2022/06/25 04:26:13;;;;;;;25.92;13.18;;;;;;;16.89;100.00;100694.97;5051045;28;20033;-76
2022/06/25 04:31:23;;;;;;;23.80;11.88;;;;;;;17.13;100.00;100701.63;5051680;28;20033;-76
2022/06/25 04:33:49;;;;;;;26.13;10.73;;;;;;;17.18;100.00;100704.75;5052599;28;20047;-75
2022/06/25 04:36:14;;;;;;;26.00;11.30;;;;;;;17.22;100.00;100708.94;5055042;28;20025;-76
2022/06/25 04:38:40;;;;;;;25.25;10.15;;;;;;;17.27;100.00;100706.50;5054932;28;20033;-75
2022/06/25 04:41:06;;;;;;;28.02;11.05;;;;;;;17.38;100.00;100716.38;5054843;28;20032;-75
2022/06/25 04:43:31;;;;;;;30.95;10.85;;;;;;;17.45;100.00;100723.84;5055879;28;20029;-74
2022/06/25 04:45:57;;;;;;;29.60;11.65;;;;;;;17.46;100.00;100710.84;5037911;28;20075;-75
2022/06/25 04:48:22;;;;;;;20.77;10.27;;;;;;;17.50;100.00;100714.19;5054600;28;20068;-75
2022/06/25 04:50:48;;;;;;;23.80;10.02;;;;;;;17.58;100.00;100717.81;5038128;28;20037;-75
2022/06/25 04:53:13;;;;;;;20.38;10.48;;;;;;;17.62;100.00;100721.97;5055697;28;20099;-75
2022/06/25 04:55:39;;;;;;;27.13;9.88;;;;;;;17.64;100.00;100730.09;5021417;28;20472;-75
2022/06/25 04:58:05;;;;;;;24.25;11.13;;;;;;;17.69;100.00;100726.81;5055626;28;20039;-75
2022/06/25 05:00:31;;;;;;;25.60;10.65;;;;;;;17.66;100.00;100730.81;5054423;28;20032;-75
2022/06/25 05:02:56;;;;;;;26.85;11.65;;;;;;;17.69;100.00;100737.91;5054407;28;20186;-75
2022/06/25 05:05:22;;;;;;;26.67;11.77;;;;;;;17.67;100.00;100740.84;5055383;28;20064;-75
2022/06/25 05:07:47;;;;;;;31.02;12.73;;;;;;;17.76;100.00;100741.72;5054177;28;20025;-75
2022/06/25 05:10:13;;;;;;;23.90;11.43;;;;;;;17.84;100.00;100738.97;5054155;28;20400;-75
2022/06/25 05:15:22;;;;;;;30.67;11.95;;;;;;;18.13;100.00;100746.78;5054387;28;20044;-75
2022/06/25 05:17:48;;;;;;;28.50;12.15;;;;;;;18.32;100.00;100737.25;5053973;28;20392;-75
2022/06/25 05:20:13;;;;;;;26.52;12.23;;;;;;;18.51;100.00;100741.56;5054068;28;20041;-74
2022/06/25 05:22:39;;;;;;;26.10;11.57;;;;;;;18.68;100.00;100739.59;5037399;28;20397;-75
2022/06/25 05:25:05;;;;;;;22.63;10.45;;;;;;;19.04;100.00;100747.47;5053920;28;20396;-76
2022/06/25 05:27:31;;;;;;;24.48;9.48;;;;;;;19.21;100.00;100751.03;5054915;28;20049;-74
2022/06/25 05:29:57;;;;;;;19.75;10.10;;;;;;;19.34;100.00;100746.84;5055031;28;20119;-74
2022/06/25 05:32:22;;;;;;;21.33;9.18;;;;;;;19.46;100.00;100748.13;5055057;28;20033;-75
2022/06/25 05:34:48;;;;;;;25.88;9.43;;;;;;;19.43;100.00;100751.28;5053794;28;20075;-75
2022/06/25 05:37:15;;;;;;;19.80;9.43;;;;;;;19.16;100.00;100741.53;5053719;28;20427;-75
2022/06/25 05:39:40;;;;;;;20.90;9.25;;;;;;;18.70;100.00;100759.69;5053600;28;20044;-75
2022/06/25 05:42:06;;;;;;;20.05;8.98;;;;;;;18.90;100.00;100767.66;5053675;28;20032;-75
2022/06/25 05:44:31;;;;;;;24.38;9.73;;;;;;;18.89;100.00;100774.25;5053428;28;20041;-75
2022/06/25 05:46:57;;;;;;;23.73;9.00;;;;;;;18.57;100.00;100769.63;5036893;28;20539;-74
2022/06/25 05:49:22;;;;;;;19.52;9.02;;;;;;;19.03;100.00;100770.72;5054645;28;20040;-74
2022/06/25 05:51:48;;;;;;;22.13;8.80;;;;;;;19.30;100.00;100768.53;5036887;28;20055;-74
2022/06/25 05:54:14;;;;;;;27.08;8.77;;;;;;;19.23;100.00;100775.84;5054542;28;20475;-74
2022/06/25 05:56:39;;;;;;;23.23;8.18;;;;;;;19.72;100.00;100775.56;5053291;28;20065;-75
2022/06/25 05:59:05;;;;;;;16.83;8.70;;;;;;;19.88;100.00;100796.88;5053256;28;20115;-74
2022/06/25 06:01:30;;;;;;;21.88;8.45;;;;;;;20.24;100.00;100781.50;5053407;28;20519;-77
2022/06/25 06:03:56;;;;;;;17.85;8.40;;;;;;;20.35;100.00;100790.25;5036740;28;20036;-76
2022/06/25 06:06:22;;;;;;;36.05;8.93;;;;;;;20.10;100.00;100788.72;5036639;28;20033;-76
2022/06/25 06:08:47;;;;;;;20.00;7.85;;;;;;;19.97;100.00;100790.22;5036483;28;20488;-75
2022/06/25 06:11:13;;;;;;;23.42;9.40;;;;;;;19.78;100.00;100791.53;5052983;28;20040;-76
2022/06/25 06:13:39;;;;;;;21.73;8.43;;;;;;;19.98;100.00;100786.38;5052998;28;20079;-76
2022/06/25 06:16:04;;;;;;;23.08;9.77;;;;;;;20.19;100.00;100790.38;5053019;28;20116;-75
2022/06/25 06:18:30;;;;;;;19.25;8.35;;;;;;;19.95;100.00;100785.88;5052876;28;20040;-75
2022/06/25 06:20:55;;;;;;;29.08;8.70;;;;;;;20.56;100.00;100797.88;5052982;28;20469;-75
2022/06/25 06:23:20;;;;;;;20.60;7.40;;;;;;;21.39;100.00;100795.03;5036291;28;20057;-76
2022/06/25 06:25:46;;;;;;;15.68;7.00;;;;;;;21.23;100.00;100790.53;5052677;28;20455;-76
2022/06/25 06:28:11;;;;;;;20.00;8.10;;;;;;;20.88;100.00;100797.75;5054059;28;20029;-76
2022/06/25 06:30:37;;;;;;;17.10;7.30;;;;;;;21.03;100.00;100798.63;5052722;28;20037;-75
2022/06/25 06:33:03;;;;;;;26.27;7.15;;;;;;;21.28;100.00;100796.41;5019573;28;20411;-76
2022/06/25 06:35:28;;;;;;;17.38;7.05;;;;;;;21.21;100.00;100798.22;5052611;28;20037;-76
2022/06/25 06:37:54;;;;;;;19.98;6.40;;;;;;;21.81;100.00;100796.25;5052607;28;20480;-76
2022/06/25 06:40:19;;;;;;;13.45;5.85;;;;;;;21.80;100.00;100802.88;5052488;28;20538;-76
2022/06/25 06:42:45;;;;;;;20.83;6.38;;;;;;;21.96;100.00;100790.63;5052643;28;20037;-76
2022/06/25 06:45:10;;;;;;;27.98;7.82;;;;;;;21.87;100.00;100790.94;5053753;28;20036;-76
2022/06/25 06:47:36;;;;;;;14.88;6.35;;;;;;;22.19;100.00;100795.13;5053592;28;20033;-76
2022/06/25 06:50:01;;;;;;;23.75;5.85;;;;;;;22.30;100.00;100794.63;5052438;28;20075;-76
2022/06/25 06:52:27;;;;;;;23.73;6.93;;;;;;;21.76;100.00;100797.88;5052176;28;20032;-76
2022/06/25 06:54:53;;;;;;;20.35;6.18;;;;;;;21.92;100.00;100799.56;5035774;28;20071;-76
2022/06/25 06:57:19;;;;;;;18.40;5.00;;;;;;;21.30;100.00;100807.38;5051893;28;20037;-76
2022/06/25 06:59:44;;;;;;;21.48;5.53;;;;;;;21.37;100.00;100801.88;5052312;28;20095;-76
2022/06/25 07:02:10;;;;;;;13.43;5.10;;;;;;;21.22;100.00;100801.91;5052452;28;20460;-76
2022/06/25 07:04:35;;;;;;;13.20;4.50;;;;;;;21.31;100.00;100806.28;5035474;28;20041;-76
2022/06/25 07:07:01;;;;;;;14.13;5.70;;;;;;;20.95;100.00;100807.06;5035595;28;20025;-76
2022/06/25 07:09:26;;;;;;;15.80;5.47;;;;;;;20.95;100.00;100804.28;5019014;28;20147;-76
2022/06/25 07:11:52;;;;;;;28.63;5.88;;;;;;;21.00;100.00;100801.78;5052091;28;20116;-76
2022/06/25 07:14:17;;;;;;;19.05;5.78;;;;;;;21.08;100.00;100803.63;5035286;28;20464;-76
2022/06/25 07:16:43;;;;;;;17.15;5.40;;;;;;;21.41;100.00;100804.06;5035586;28;20033;-76
2022/06/25 07:19:10;;;;;;;12.38;4.82;;;;;;;21.41;100.00;100811.56;5053218;28;20492;-76
2022/06/25 07:21:36;;;;;;;9.63;4.80;;;;;;;21.24;100.00;100822.06;5053065;28;20068;-76
2022/06/25 07:24:01;;;;;;;17.20;4.72;;;;;;;21.10;100.00;100823.78;5052956;28;20472;-76
2022/06/25 07:26:27;;;;;;;14.55;4.47;;;;;;;20.87;100.00;100821.97;5051515;28;20124;-76
2022/06/25 07:28:53;;;;;;;12.73;5.00;;;;;;;20.80;100.00;100826.53;5052964;28;20120;-76
2022/06/25 07:31:19;;;;;;;14.50;5.00;;;;;;;20.74;100.00;100824.50;5053052;28;20056;-76
2022/06/25 07:33:44;;;;;;;28.95;5.88;;;;;;;20.80;100.00;100822.91;5035460;28;20429;-76
2022/06/25 07:36:10;;;;;;;11.45;4.55;;;;;;;20.69;100.00;100830.66;5051782;28;20041;-74
2022/06/25 07:38:35;;;;;;;12.18;5.50;;;;;;;20.80;100.00;100825.69;5053025;28;20037;-75
2022/06/25 07:41:01;;;;;;;19.85;6.95;;;;;;;20.56;100.00;100834.03;5035082;28;20047;-75
2022/06/25 07:43:27;;;;;;;15.40;5.20;;;;;;;20.43;100.00;100828.25;5051584;28;20041;-75
2022/06/25 07:45:54;;;;;;;15.15;5.75;;;;;;;20.61;100.00;100838.16;5035153;28;20032;-75
2022/06/25 07:48:20;;;;;;;14.40;5.57;;;;;;;20.78;100.00;100838.94;5051754;28;20396;-75
2022/06/25 07:53:29;;;;;;;13.00;5.20;;;;;;;20.91;100.00;100839.13;5052792;28;20044;-75
2022/06/25 07:55:55;;;;;;;16.60;5.65;;;;;;;20.75;100.00;100838.22;5051522;28;20029;-75
2022/06/25 07:58:23;;;;;;;15.25;5.35;;;;;;;20.70;100.00;100840.72;5035081;28;20400;-75
2022/06/25 08:00:49;;;;;;;19.20;6.40;;;;;;;20.50;100.00;100832.00;5051442;28;20033;-75
2022/06/25 08:03:14;;;;;;;14.75;5.38;;;;;;;20.96;100.00;100833.88;5052857;28;20035;-75
2022/06/25 08:05:40;;;;;;;11.00;5.15;;;;;;;21.75;100.00;100826.81;5034784;28;20071;-75
2022/06/25 08:08:05;;;;;;;11.52;5.20;;;;;;;22.55;100.00;100833.28;5051363;28;20170;-76
2022/06/25 08:10:31;;;;;;;18.83;5.43;;;;;;;23.19;100.00;100828.63;5055317;28;20040;-76
2022/06/25 08:12:56;;;;;;;19.25;4.95;;;;;;;22.95;100.00;100828.84;5038729;28;20037;-76
2022/06/25 08:15:22;;;;;;;16.20;4.40;;;;;;;23.82;100.00;100826.56;5055264;28;20044;-76
2022/06/25 08:17:47;;;;;;;14.02;4.63;;;;;;;23.07;100.00;100819.94;5022093;28;20116;-76
2022/06/25 08:20:13;;;;;;;15.15;4.38;;;;;;;22.74;100.00;100820.53;5055375;28;20036;-76
2022/06/25 08:22:39;;;;;;;29.55;5.47;;;;;;;22.15;100.00;100825.34;5055452;28;20090;-75
2022/06/25 08:25:07;;;;;;;12.38;3.80;;;;;;;21.37;100.00;100827.81;5038566;28;20484;-75
2022/06/25 08:27:33;;;;;;;16.17;5.85;;;;;;;21.61;100.00;100820.22;5038739;28;20045;-75
2022/06/25 08:29:58;;;;;;;9.57;4.55;;;;;;;21.27;100.00;100841.19;5054920;28;20086;-75
2022/06/25 08:32:24;;;;;;;13.57;5.72;;;;;;;21.46;100.00;100837.81;5038255;28;20071;-75
2022/06/25 08:34:49;;;;;;;14.10;5.30;;;;;;;21.22;100.00;100836.19;5054901;28;20059;-75
2022/06/25 08:37:15;;;;;;;16.92;5.55;;;;;;;20.76;100.00;100841.91;5056042;28;20437;-75
2022/06/25 08:39:40;;;;;;;18.67;4.97;;;;;;;20.74;100.00;100843.97;5054920;28;20045;-75
2022/06/25 08:42:06;;;;;;;16.15;5.03;;;;;;;20.91;100.00;100842.78;5054806;28;20037;-75
2022/06/25 08:44:31;;;;;;;15.52;5.70;;;;;;;20.75;100.00;100843.78;5038144;28;20033;-75
2022/06/25 08:46:58;;;;;;;10.10;4.80;;;;;;;20.70;100.00;100851.00;5055917;28;20047;-75
2022/06/25 08:49:24;;;;;;;15.30;5.07;;;;;;;20.60;100.00;100850.38;5054616;28;20120;-75
2022/06/25 08:51:53;;;;;;;18.85;5.75;;;;;;;20.73;100.00;100848.69;5055792;28;20033;-75
2022/06/25 08:54:19;;;;;;;18.63;5.43;;;;;;;20.92;100.00;100849.19;5055812;28;20029;-75
2022/06/25 08:56:46;;;;;;;10.70;4.72;;;;;;;20.84;100.00;100839.03;5055620;28;20393;-75
2022/06/25 08:59:11;;;;;;;23.35;4.60;;;;;;;20.99;100.00;100835.38;5055896;28;20067;-75
2022/06/25 09:01:36;;;;;;;15.23;4.38;;;;;;;21.10;100.00;100833.00;5054446;28;20586;-75
2022/06/25 09:04:02;;;;;;;20.67;4.82;;;;;;;21.13;100.00;100839.25;5037844;28;20082;-75
2022/06/25 09:06:28;;;;;;;20.27;4.70;;;;;;;21.17;100.00;100846.16;5055348;28;20033;-75
2022/06/25 09:09:15;;;;;;;12.85;4.00;;;;;;;21.55;100.00;100834.94;5037549;28;20029;-75
2022/06/25 09:11:55;;;;;;;14.07;4.75;;;;;;;21.45;100.00;100838.00;5037515;28;20119;-75
2022/06/25 09:14:27;;;;;;;9.65;4.10;;;;;;;21.43;100.00;100829.84;5054526;28;20059;-76
2022/06/25 09:17:04;;;;;;;10.40;4.30;;;;;;;21.70;100.00;100834.91;5037447;28;20025;-74
2022/06/25 09:19:41;;;;;;;13.73;4.57;;;;;;;22.50;100.00;100831.09;5053863;28;20037;-74
2022/06/25 09:22:10;;;;;;;14.40;4.75;;;;;;;23.06;100.00;100826.56;5055203;28;20455;-76
2022/06/25 09:24:49;;;;;;;14.00;4.55;;;;;;;22.94;100.00;100824.34;5054107;28;20485;-75
2022/06/25 09:27:36;;;;;;;14.13;4.80;;;;;;;22.57;100.00;100817.19;5054981;28;20531;-75
2022/06/25 09:30:14;;;;;;;16.75;4.90;;;;;;;22.07;100.00;100819.03;5055049;28;20104;-75
2022/06/25 09:32:46;;;;;;;18.85;4.80;;;;;;;21.88;100.00;100818.63;5055116;28;20377;-74
2022/06/25 09:35:12;;;;;;;10.63;5.30;;;;;;;21.79;100.00;100820.66;5053853;28;20124;-75
2022/06/25 09:37:39;;;;;;;17.85;4.88;;;;;;;21.29;100.00;100817.63;5055099;28;20059;-75
2022/06/25 09:40:06;;;;;;;13.93;5.25;;;;;;;21.36;100.00;100822.44;5055042;28;20033;-76
2022/06/25 09:42:33;;;;;;;12.15;4.45;;;;;;;21.41;100.00;100814.34;5053668;28;20032;-75
2022/06/25 09:45:10;;;;;;;12.30;4.50;;;;;;;21.43;100.00;100828.94;5053826;28;20455;-75
2022/06/25 09:47:45;;;;;;;11.00;4.45;;;;;;;21.07;100.00;100829.72;5036825;28;20163;-75
2022/06/25 09:50:18;;;;;;;12.45;4.32;;;;;;;21.17;100.00;100835.00;5054788;28;20384;-75
2022/06/25 09:52:52;;;;;;;15.45;4.22;;;;;;;21.26;100.00;100828.28;5036908;28;20083;-75
2022/06/25 09:55:19;;;;;;;15.38;4.55;;;;;;;21.20;100.00;100823.50;5053368;28;20044;-75
2022/06/25 09:57:46;;;;;;;17.10;4.40;;;;;;;21.20;100.00;100834.63;5054637;28;20032;-76
2022/06/25 10:00:14;;;;;;;13.68;3.40;;;;;;;21.28;100.00;100834.53;5053544;28;20025;-75
2022/06/25 10:02:45;;;;;;;11.27;2.80;;;;;;;21.28;100.00;100843.78;5054645;28;20082;-76
2022/06/25 10:05:11;;;;;;;7.95;2.83;;;;;;;21.40;100.00;100833.00;5037497;28;20040;-75
2022/06/25 10:10:22;;;;;;;8.82;3.05;;;;;;;21.74;100.00;100831.56;5054656;28;20029;-76
2022/06/25 10:12:49;;;;;;;8.77;3.47;;;;;;;22.01;100.00;100837.44;5054514;28;20037;-76
2022/06/25 10:15:17;;;;;;;12.07;3.40;;;;;;;22.05;100.00;100833.16;5054437;28;20051;-76
2022/06/25 10:17:48;;;;;;;10.10;3.00;;;;;;;22.38;100.00;100832.66;5054257;28;20086;-76
2022/06/25 10:20:16;;;;;;;10.00;3.08;;;;;;;22.50;100.00;100836.66;5052878;28;20465;-76
2022/06/25 10:22:43;;;;;;;9.02;3.67;;;;;;;22.39;100.00;100828.81;5052904;28;20119;-76
2022/06/25 10:25:19;;;;;;;5.82;2.85;;;;;;;22.34;100.00;100832.22;5052598;28;20037;-76
2022/06/25 10:27:50;;;;;;;10.57;3.28;;;;;;;22.41;100.00;100837.00;5052715;28;20424;-76
2022/06/25 10:30:35;;;;;;;13.65;2.83;;;;;;;22.39;100.00;100826.88;5053143;28;20094;-76
2022/06/25 10:33:02;;;;;;;9.32;2.80;;;;;;;22.16;100.00;100829.84;5052197;28;20036;-76
2022/06/25 10:35:39;;;;;;;13.80;2.85;;;;;;;22.06;100.00;100839.63;5052802;28;20024;-76
2022/06/25 10:38:18;;;;;;;6.80;2.85;;;;;;;21.98;100.00;100823.88;5052644;28;20082;-76
2022/06/25 10:40:55;;;;;;;7.53;2.60;;;;;;;22.06;100.00;100829.31;5054049;28;20074;-76
2022/06/25 10:43:34;;;;;;;7.43;2.35;;;;;;;21.95;100.00;100825.13;5052583;28;20060;-76
2022/06/25 10:45:59;;;;;;;10.15;2.58;;;;;;;22.15;100.00;100832.84;5052450;28;20029;-76
2022/06/25 10:48:29;;;;;;;7.90;2.38;;;;;;;22.27;100.00;100834.06;5052472;28;20037;-76
2022/06/25 10:50:54;;;;;;;6.07;2.38;;;;;;;22.37;100.00;100826.25;5053535;28;20020;-76
2022/06/25 10:53:23;;;;;;;13.70;2.45;;;;;;;22.47;100.00;100837.06;5052251;28;20047;-76
2022/06/25 10:55:48;;;;;;;6.45;1.95;;;;;;;23.27;100.00;100831.25;5052148;28;20040;-76
2022/06/25 10:58:15;;;;;;;5.82;2.15;;;;;;;23.65;100.00;100823.25;5053399;28;20415;-75
2022/06/25 11:00:55;;;;;;;11.13;2.50;;;;;;;24.34;100.00;100826.91;5052368;28;20075;-74
2022/06/25 11:03:27;;;;;;;6.72;2.40;;;;;;;23.95;100.00;100828.56;5052228;28;20039;-75
2022/06/25 11:05:53;;;;;;;7.70;2.33;;;;;;;23.78;100.00;100825.25;5053259;28;20029;-75
2022/06/25 11:08:22;;;;;;;7.72;2.65;;;;;;;23.43;100.00;100819.75;5052059;28;20290;-75
2022/06/25 11:10:49;;;;;;;14.23;2.13;;;;;;;23.24;100.00;100812.97;5052067;28;20033;-75
2022/06/25 11:13:14;;;;;;;6.95;1.90;;;;;;;23.22;100.00;100815.09;5051947;28;20392;-75
2022/06/25 11:15:43;;;;;;;9.60;2.05;;;;;;;23.16;100.00;100817.88;5052027;28;20029;-76
2022/06/25 11:18:17;;;;;;;11.70;2.05;;;;;;;23.18;100.00;100810.13;5053207;28;20025;-75
2022/06/25 11:20:43;;;;;;;10.18;2.25;;;;;;;23.01;100.00;100815.16;5052021;28;20391;-75
2022/06/25 11:23:13;;;;;;;5.00;1.63;;;;;;;22.84;100.00;100807.09;5051749;28;20033;-75
2022/06/25 11:28:49;;;;;;;3.85;1.50;;;;;;;22.99;100.00;100815.38;5053088;28;20392;-76
2022/06/25 11:31:16;;;;;;;5.22;1.83;;;;;;;23.18;100.00;100829.69;5051800;28;20075;-76
2022/06/25 11:33:43;;;;;;;4.72;1.52;;;;;;;23.53;100.00;100818.47;5053083;28;20044;-76